sensor_id;sensor_type;location;lat;lon;timestamp;pressure;altitude;pressure_sealevel;temperature;humidity
51083;BME280;37131;42.694;23.350;2022-08-07T00:00:04;95167.16;;;23.13;59.95
51083;BME280;37131;42.694;23.350;2022-08-07T00:02:29;95175.13;;;23.13;60.25
51083;BME280;37131;42.694;23.350;2022-08-07T00:04:55;95174.34;;;23.12;60.27
51083;BME280;37131;42.694;23.350;2022-08-07T00:07:20;95179.69;;;23.12;59.85
51083;BME280;37131;42.694;23.350;2022-08-07T00:09:46;95163.50;;;23.09;59.40
51083;BME280;37131;42.694;23.350;2022-08-07T00:12:11;95177.69;;;23.18;59.39
51083;BME280;37131;42.694;23.350;2022-08-07T00:14:37;95175.78;;;23.19;59.67
51083;BME280;37131;42.694;23.350;2022-08-07T00:17:02;95172.50;;;23.22;58.85
51083;BME280;37131;42.694;23.350;2022-08-07T00:19:30;95170.31;;;23.15;59.14
51083;BME280;37131;42.694;23.350;2022-08-07T00:21:55;95167.34;;;23.17;59.38
51083;BME280;37131;42.694;23.350;2022-08-07T00:24:21;95160.31;;;23.21;58.94
51083;BME280;37131;42.694;23.350;2022-08-07T00:26:46;95181.78;;;23.24;58.61
51083;BME280;37131;42.694;23.350;2022-08-07T00:29:11;95181.78;;;23.24;58.61
51083;BME280;37131;42.694;23.350;2022-08-07T00:31:37;95185.81;;;23.22;59.14
51083;BME280;37131;42.694;23.350;2022-08-07T00:34:02;95186.13;;;23.20;59.36
51083;BME280;37131;42.694;23.350;2022-08-07T00:36:28;95183.47;;;23.20;58.72
51083;BME280;37131;42.694;23.350;2022-08-07T00:38:53;95182.72;;;23.28;58.36
51083;BME280;37131;42.694;23.350;2022-08-07T00:41:25;95184.22;;;23.12;58.98
51083;BME280;37131;42.694;23.350;2022-08-07T00:43:51;95138.16;;;22.71;60.89
51083;BME280;37131;42.694;23.350;2022-08-07T00:46:16;95178.47;;;22.96;61.43
51083;BME280;37131;42.694;23.350;2022-08-07T00:48:41;95180.63;;;22.94;61.04
51083;BME280;37131;42.694;23.350;2022-08-07T00:51:07;95186.88;;;22.89;60.87
51083;BME280;37131;42.694;23.350;2022-08-07T00:53:33;95176.44;;;22.93;60.41
51083;BME280;37131;42.694;23.350;2022-08-07T00:55:58;95189.41;;;22.94;60.74
51083;BME280;37131;42.694;23.350;2022-08-07T00:58:24;95187.66;;;22.90;60.88
51083;BME280;37131;42.694;23.350;2022-08-07T01:00:50;95134.97;;;22.60;60.16
51083;BME280;37131;42.694;23.350;2022-08-07T01:03:17;95187.66;;;22.90;60.10
51083;BME280;37131;42.694;23.350;2022-08-07T01:05:43;95188.09;;;22.83;59.77
51083;BME280;37131;42.694;23.350;2022-08-07T01:08:10;95172.13;;;22.83;60.71
51083;BME280;37131;42.694;23.350;2022-08-07T01:10:36;95178.38;;;22.78;60.71
51083;BME280;37131;42.694;23.350;2022-08-07T01:13:03;95170.44;;;22.65;61.19
51083;BME280;37131;42.694;23.350;2022-08-07T01:15:31;95191.53;;;22.61;62.15
51083;BME280;37131;42.694;23.350;2022-08-07T01:17:58;95196.81;;;22.02;64.22
51083;BME280;37131;42.694;23.350;2022-08-07T01:20:30;95201.00;;;22.17;64.27
51083;BME280;37131;42.694;23.350;2022-08-07T01:22:58;95200.00;;;22.27;62.80
51083;BME280;37131;42.694;23.350;2022-08-07T01:25:24;95196.84;;;22.38;61.93
51083;BME280;37131;42.694;23.350;2022-08-07T01:27:50;95203.00;;;22.48;61.72
51083;BME280;37131;42.694;23.350;2022-08-07T01:30:16;95207.03;;;22.45;61.90
51083;BME280;37131;42.694;23.350;2022-08-07T01:32:42;95201.13;;;22.48;60.71
51083;BME280;37131;42.694;23.350;2022-08-07T01:35:07;95204.09;;;22.47;60.69
51083;BME280;37131;42.694;23.350;2022-08-07T01:37:34;95201.13;;;22.48;60.93
51083;BME280;37131;42.694;23.350;2022-08-07T01:40:00;95195.94;;;22.43;61.49
51083;BME280;37131;42.694;23.350;2022-08-07T01:42:26;95200.53;;;22.51;60.78
51083;BME280;37131;42.694;23.350;2022-08-07T01:44:52;95208.72;;;22.41;61.67
51083;BME280;37131;42.694;23.350;2022-08-07T01:47:18;95218.53;;;22.54;61.28
51083;BME280;37131;42.694;23.350;2022-08-07T01:49:44;95227.44;;;22.36;61.90
51083;BME280;37131;42.694;23.350;2022-08-07T01:52:11;95243.00;;;22.15;62.04
51083;BME280;37131;42.694;23.350;2022-08-07T01:54:40;95258.03;;;22.05;61.70
51083;BME280;37131;42.694;23.350;2022-08-07T01:57:41;95288.44;;;21.99;62.38
51083;BME280;37131;42.694;23.350;2022-08-07T02:00:09;95301.00;;;21.94;62.46
51083;BME280;37131;42.694;23.350;2022-08-07T02:02:50;95283.34;;;22.03;62.02
51083;BME280;37131;42.694;23.350;2022-08-07T02:05:21;95287.25;;;21.92;63.18
51083;BME280;37131;42.694;23.350;2022-08-07T02:07:51;95300.22;;;22.07;63.12
51083;BME280;37131;42.694;23.350;2022-08-07T02:10:21;95296.78;;;22.06;63.51
51083;BME280;37131;42.694;23.350;2022-08-07T02:12:48;95299.53;;;21.87;64.71
51083;BME280;37131;42.694;23.350;2022-08-07T02:15:15;95289.72;;;21.88;64.27
51083;BME280;37131;42.694;23.350;2022-08-07T02:17:44;95305.34;;;21.76;66.75
51083;BME280;37131;42.694;23.350;2022-08-07T02:20:12;95273.56;;;21.57;68.63
51083;BME280;37131;42.694;23.350;2022-08-07T02:22:39;95310.28;;;21.82;72.78
51083;BME280;37131;42.694;23.350;2022-08-07T02:25:07;95288.94;;;21.41;80.04
51083;BME280;37131;42.694;23.350;2022-08-07T02:27:33;95275.28;;;21.00;85.85
51083;BME280;37131;42.694;23.350;2022-08-07T02:30:01;95263.41;;;21.31;85.40
51083;BME280;37131;42.694;23.350;2022-08-07T02:32:28;95254.41;;;21.13;89.24
51083;BME280;37131;42.694;23.350;2022-08-07T02:34:55;95257.88;;;20.94;90.18
51083;BME280;37131;42.694;23.350;2022-08-07T02:37:22;95247.38;;;20.89;91.69
51083;BME280;37131;42.694;23.350;2022-08-07T02:39:49;95237.22;;;20.77;94.52
51083;BME280;37131;42.694;23.350;2022-08-07T02:42:17;95230.25;;;20.81;94.18
51083;BME280;37131;42.694;23.350;2022-08-07T02:44:45;95181.78;;;20.62;94.19
51083;BME280;37131;42.694;23.350;2022-08-07T02:47:11;95229.34;;;20.72;95.58
51083;BME280;37131;42.694;23.350;2022-08-07T02:49:37;95224.94;;;20.62;96.86
51083;BME280;37131;42.694;23.350;2022-08-07T02:52:04;95230.16;;;20.54;95.02
51083;BME280;37131;42.694;23.350;2022-08-07T02:54:35;95232.13;;;20.62;94.04
51083;BME280;37131;42.694;23.350;2022-08-07T02:57:06;95241.84;;;20.47;93.50
51083;BME280;37131;42.694;23.350;2022-08-07T02:59:33;95231.63;;;20.60;93.25
51083;BME280;37131;42.694;23.350;2022-08-07T03:01:59;95227.56;;;20.48;96.25
51083;BME280;37131;42.694;23.350;2022-08-07T03:04:26;95213.59;;;20.43;97.51
51083;BME280;37131;42.694;23.350;2022-08-07T03:06:52;95214.75;;;20.18;99.65
51083;BME280;37131;42.694;23.350;2022-08-07T03:09:19;95221.38;;;19.96;100.00
51083;BME280;37131;42.694;23.350;2022-08-07T03:11:46;95225.72;;;19.87;100.00
51083;BME280;37131;42.694;23.350;2022-08-07T03:14:12;95223.88;;;20.06;100.00
51083;BME280;37131;42.694;23.350;2022-08-07T03:16:39;95215.09;;;19.92;100.00
51083;BME280;37131;42.694;23.350;2022-08-07T03:19:06;95222.66;;;19.74;100.00
51083;BME280;37131;42.694;23.350;2022-08-07T03:21:32;95221.00;;;19.84;100.00
51083;BME280;37131;42.694;23.350;2022-08-07T03:23:57;95232.31;;;19.89;100.00
51083;BME280;37131;42.694;23.350;2022-08-07T03:26:30;95230.97;;;19.92;100.00
51083;BME280;37131;42.694;23.350;2022-08-07T03:28:58;95227.22;;;19.93;100.00
51083;BME280;37131;42.694;23.350;2022-08-07T03:31:26;95229.75;;;20.03;100.00
51083;BME280;37131;42.694;23.350;2022-08-07T03:33:54;95225.38;;;19.93;100.00
51083;BME280;37131;42.694;23.350;2022-08-07T03:36:22;95225.63;;;20.16;100.00
51083;BME280;37131;42.694;23.350;2022-08-07T03:38:49;95223.59;;;20.27;100.00
51083;BME280;37131;42.694;23.350;2022-08-07T03:41:16;95222.25;;;20.10;100.00
51083;BME280;37131;42.694;23.350;2022-08-07T03:43:43;95225.75;;;20.25;100.00
51083;BME280;37131;42.694;23.350;2022-08-07T03:46:09;95226.53;;;20.25;100.00
51083;BME280;37131;42.694;23.350;2022-08-07T03:48:36;95227.84;;;20.28;100.00
51083;BME280;37131;42.694;23.350;2022-08-07T03:51:02;95247.88;;;20.34;100.00
51083;BME280;37131;42.694;23.350;2022-08-07T03:53:28;95247.44;;;20.46;100.00
51083;BME280;37131;42.694;23.350;2022-08-07T03:55:54;95233.00;;;20.38;100.00
51083;BME280;37131;42.694;23.350;2022-08-07T03:58:22;95245.59;;;20.46;100.00
51083;BME280;37131;42.694;23.350;2022-08-07T04:00:48;95243.44;;;20.48;100.00
51083;BME280;37131;42.694;23.350;2022-08-07T04:03:16;95237.09;;;20.49;100.00
51083;BME280;37131;42.694;23.350;2022-08-07T04:05:42;95237.22;;;20.58;100.00
51083;BME280;37131;42.694;23.350;2022-08-07T04:08:12;95233.47;;;20.59;100.00
51083;BME280;37131;42.694;23.350;2022-08-07T04:10:39;95250.69;;;20.81;100.00
51083;BME280;37131;42.694;23.350;2022-08-07T04:13:05;95233.44;;;20.83;100.00
51083;BME280;37131;42.694;23.350;2022-08-07T04:15:32;95248.50;;;20.83;100.00
51083;BME280;37131;42.694;23.350;2022-08-07T04:17:58;95254.38;;;20.61;100.00
51083;BME280;37131;42.694;23.350;2022-08-07T04:20:24;95239.38;;;20.75;100.00
51083;BME280;37131;42.694;23.350;2022-08-07T04:22:49;95244.16;;;20.92;100.00
51083;BME280;37131;42.694;23.350;2022-08-07T04:25:17;95253.38;;;20.95;100.00
51083;BME280;37131;42.694;23.350;2022-08-07T04:27:42;95259.31;;;21.06;100.00
51083;BME280;37131;42.694;23.350;2022-08-07T04:30:08;95262.16;;;21.09;100.00
51083;BME280;37131;42.694;23.350;2022-08-07T04:32:34;95268.47;;;21.27;100.00
51083;BME280;37131;42.694;23.350;2022-08-07T04:35:03;95278.56;;;21.11;100.00
51083;BME280;37131;42.694;23.350;2022-08-07T04:37:30;95275.69;;;21.08;100.00
51083;BME280;37131;42.694;23.350;2022-08-07T04:39:56;95272.00;;;21.23;100.00
51083;BME280;37131;42.694;23.350;2022-08-07T04:42:21;95279.25;;;21.17;100.00
51083;BME280;37131;42.694;23.350;2022-08-07T04:44:54;95283.22;;;21.00;93.78
51083;BME280;37131;42.694;23.350;2022-08-07T04:52:54;95275.59;;;21.46;94.55
51083;BME280;37131;42.694;23.350;2022-08-07T04:55:54;95280.06;;;21.50;96.16
51083;BME280;37131;42.694;23.350;2022-08-07T04:58:37;95280.28;;;21.68;96.08
51083;BME280;37131;42.694;23.350;2022-08-07T05:01:13;95291.00;;;21.77;94.87
51083;BME280;37131;42.694;23.350;2022-08-07T05:06:15;95285.59;;;21.96;94.32
51083;BME280;37131;42.694;23.350;2022-08-07T05:09:12;95287.75;;;22.07;93.33
51083;BME280;37131;42.694;23.350;2022-08-07T05:11:46;95301.53;;;21.96;87.38
51083;BME280;37131;42.694;23.350;2022-08-07T05:14:24;95299.94;;;22.08;86.71
51083;BME280;37131;42.694;23.350;2022-08-07T05:16:53;95316.56;;;22.00;83.99
51083;BME280;37131;42.694;23.350;2022-08-07T05:19:22;95290.38;;;22.21;85.29
51083;BME280;37131;42.694;23.350;2022-08-07T05:21:52;95298.75;;;22.29;85.33
51083;BME280;37131;42.694;23.350;2022-08-07T05:24:21;95300.81;;;22.46;86.98
51083;BME280;37131;42.694;23.350;2022-08-07T05:26:51;95303.06;;;22.24;84.18
51083;BME280;37131;42.694;23.350;2022-08-07T05:29:18;95304.56;;;22.45;81.87
51083;BME280;37131;42.694;23.350;2022-08-07T05:31:46;95304.34;;;22.55;80.68
51083;BME280;37131;42.694;23.350;2022-08-07T05:34:15;95298.50;;;22.67;80.31
51083;BME280;37131;42.694;23.350;2022-08-07T05:36:43;95298.94;;;22.83;80.58
51083;BME280;37131;42.694;23.350;2022-08-07T05:39:10;95296.69;;;22.99;83.39
51083;BME280;37131;42.694;23.350;2022-08-07T05:41:38;95309.75;;;23.09;84.32
51083;BME280;37131;42.694;23.350;2022-08-07T05:44:04;95311.25;;;23.15;83.19
51083;BME280;37131;42.694;23.350;2022-08-07T05:46:30;95309.59;;;23.28;83.08
51083;BME280;37131;42.694;23.350;2022-08-07T05:48:56;95324.78;;;23.27;80.44
51083;BME280;37131;42.694;23.350;2022-08-07T05:51:22;95325.75;;;23.32;80.17
51083;BME280;37131;42.694;23.350;2022-08-07T05:53:48;95326.22;;;23.34;78.99
51083;BME280;37131;42.694;23.350;2022-08-07T05:56:15;95295.94;;;23.21;80.16
51083;BME280;37131;42.694;23.350;2022-08-07T05:58:42;95345.22;;;23.04;76.44
51083;BME280;37131;42.694;23.350;2022-08-07T06:01:11;95338.69;;;23.24;80.87
51083;BME280;37131;42.694;23.350;2022-08-07T06:03:39;95349.03;;;23.26;74.37
51083;BME280;37131;42.694;23.350;2022-08-07T06:06:06;95350.72;;;23.22;78.31
51083;BME280;37131;42.694;23.350;2022-08-07T06:08:32;95352.84;;;23.34;77.25
51083;BME280;37131;42.694;23.350;2022-08-07T06:10:58;95353.09;;;23.46;76.66
51083;BME280;37131;42.694;23.350;2022-08-07T06:13:24;95356.38;;;23.52;77.07
51083;BME280;37131;42.694;23.350;2022-08-07T06:15:50;95343.75;;;23.57;74.91
51083;BME280;37131;42.694;23.350;2022-08-07T06:18:19;95355.63;;;23.51;75.26
51083;BME280;37131;42.694;23.350;2022-08-07T06:20:45;95355.56;;;23.74;72.78
51083;BME280;37131;42.694;23.350;2022-08-07T06:23:11;95350.22;;;23.88;72.54
51083;BME280;37131;42.694;23.350;2022-08-07T06:25:39;95353.72;;;23.74;74.51
51083;BME280;37131;42.694;23.350;2022-08-07T06:28:07;95345.28;;;23.81;71.21
51083;BME280;37131;42.694;23.350;2022-08-07T06:30:33;95351.09;;;23.83;71.55
51083;BME280;37131;42.694;23.350;2022-08-07T06:33:00;95350.59;;;24.04;72.92
51083;BME280;37131;42.694;23.350;2022-08-07T06:35:26;95320.00;;;23.92;69.93
51083;BME280;37131;42.694;23.350;2022-08-07T06:37:51;95317.50;;;23.96;66.86
51083;BME280;37131;42.694;23.350;2022-08-07T06:40:17;95345.16;;;24.17;70.91
51083;BME280;37131;42.694;23.350;2022-08-07T06:42:46;95349.25;;;24.24;71.94
51083;BME280;37131;42.694;23.350;2022-08-07T06:45:22;95345.69;;;24.46;70.79
51083;BME280;37131;42.694;23.350;2022-08-07T06:47:49;95346.59;;;24.32;70.81
51083;BME280;37131;42.694;23.350;2022-08-07T06:50:14;95346.50;;;24.55;69.75
51083;BME280;37131;42.694;23.350;2022-08-07T06:52:48;95338.69;;;24.59;65.30
51083;BME280;37131;42.694;23.350;2022-08-07T06:55:19;95336.50;;;24.61;64.49
51083;BME280;37131;42.694;23.350;2022-08-07T06:57:47;95334.03;;;24.91;65.80
51083;BME280;37131;42.694;23.350;2022-08-07T07:00:14;95329.78;;;25.07;64.83
51083;BME280;37131;42.694;23.350;2022-08-07T07:02:40;95340.16;;;24.91;60.82
51083;BME280;37131;42.694;23.350;2022-08-07T07:05:07;95347.53;;;25.12;61.08
51083;BME280;37131;42.694;23.350;2022-08-07T07:07:33;95345.81;;;25.16;62.02
51083;BME280;37131;42.694;23.350;2022-08-07T07:09:58;95354.09;;;25.23;62.72
51083;BME280;37131;42.694;23.350;2022-08-07T07:15:06;95337.50;;;25.35;59.62
51083;BME280;37131;42.694;23.350;2022-08-07T07:20:36;95347.59;;;25.77;60.87
51083;BME280;37131;42.694;23.350;2022-08-07T07:23:05;95350.44;;;25.71;57.42
51083;BME280;37131;42.694;23.350;2022-08-07T07:25:33;95345.13;;;25.63;56.30
51083;BME280;37131;42.694;23.350;2022-08-07T07:28:09;95347.22;;;25.48;56.85
51083;BME280;37131;42.694;23.350;2022-08-07T07:30:39;95344.69;;;25.34;57.28
51083;BME280;37131;42.694;23.350;2022-08-07T07:33:09;95345.34;;;25.31;56.41
51083;BME280;37131;42.694;23.350;2022-08-07T07:35:35;95350.81;;;25.44;55.65
51083;BME280;37131;42.694;23.350;2022-08-07T07:38:02;95336.13;;;25.76;53.38
51083;BME280;37131;42.694;23.350;2022-08-07T07:40:31;95343.41;;;26.14;54.17
51083;BME280;37131;42.694;23.350;2022-08-07T07:42:59;95347.06;;;26.39;54.52
51083;BME280;37131;42.694;23.350;2022-08-07T07:45:28;95352.44;;;25.83;53.42
51083;BME280;37131;42.694;23.350;2022-08-07T07:47:55;95350.69;;;25.96;54.37
51083;BME280;37131;42.694;23.350;2022-08-07T07:50:23;95352.09;;;26.02;52.09
51083;BME280;37131;42.694;23.350;2022-08-07T07:52:51;95356.75;;;26.14;51.73
51083;BME280;37131;42.694;23.350;2022-08-07T07:55:18;95362.94;;;26.06;50.35
51083;BME280;37131;42.694;23.350;2022-08-07T07:57:46;95360.09;;;25.94;51.47
51083;BME280;37131;42.694;23.350;2022-08-07T08:00:14;95359.19;;;26.37;51.86
51083;BME280;37131;42.694;23.350;2022-08-07T08:02:40;95342.91;;;26.21;52.09
51083;BME280;37131;42.694;23.350;2022-08-07T08:05:09;95363.53;;;26.12;50.69
51083;BME280;37131;42.694;23.350;2022-08-07T08:07:37;95360.31;;;26.27;50.94
51083;BME280;37131;42.694;23.350;2022-08-07T08:10:05;95363.84;;;26.49;51.30
51083;BME280;37131;42.694;23.350;2022-08-07T08:12:32;95361.25;;;26.61;50.40
51083;BME280;37131;42.694;23.350;2022-08-07T08:14:58;95346.59;;;26.67;51.27
51083;BME280;37131;42.694;23.350;2022-08-07T08:17:25;95367.38;;;26.91;48.85
51083;BME280;37131;42.694;23.350;2022-08-07T08:19:55;95361.94;;;27.00;49.51
51083;BME280;37131;42.694;23.350;2022-08-07T08:22:22;95361.03;;;27.17;48.79
51083;BME280;37131;42.694;23.350;2022-08-07T08:25:07;95366.25;;;26.71;49.51
51083;BME280;37131;42.694;23.350;2022-08-07T08:27:53;95360.56;;;26.73;48.34
51083;BME280;37131;42.694;23.350;2022-08-07T08:30:21;95352.50;;;26.82;48.67
51083;BME280;37131;42.694;23.350;2022-08-07T08:32:51;95366.50;;;27.21;48.03
51083;BME280;37131;42.694;23.350;2022-08-07T08:35:21;95353.72;;;27.26;48.02
51083;BME280;37131;42.694;23.350;2022-08-07T08:37:48;95355.38;;;27.31;48.25
51083;BME280;37131;42.694;23.350;2022-08-07T08:40:24;95363.63;;;27.26;47.13
51083;BME280;37131;42.694;23.350;2022-08-07T08:45:44;95365.31;;;27.52;46.90
51083;BME280;37131;42.694;23.350;2022-08-07T08:48:23;95366.06;;;27.73;47.43
51083;BME280;37131;42.694;23.350;2022-08-07T08:51:48;95368.03;;;27.09;48.52
51083;BME280;37131;42.694;23.350;2022-08-07T08:54:22;95365.28;;;27.39;46.62
51083;BME280;37131;42.694;23.350;2022-08-07T08:56:52;95362.69;;;27.64;45.83
51083;BME280;37131;42.694;23.350;2022-08-07T09:02:03;95357.50;;;27.92;45.46
51083;BME280;37131;42.694;23.350;2022-08-07T09:05:03;95343.63;;;27.78;45.99
51083;BME280;37131;42.694;23.350;2022-08-07T09:15:31;95345.81;;;28.09;45.04
51083;BME280;37131;42.694;23.350;2022-08-07T09:18:20;95351.31;;;27.79;45.05
51083;BME280;37131;42.694;23.350;2022-08-07T09:28:31;95334.19;;;28.67;42.55
51083;BME280;37131;42.694;23.350;2022-08-07T09:31:12;95325.44;;;27.96;43.71
51083;BME280;37131;42.694;23.350;2022-08-07T09:34:07;95328.94;;;28.21;43.76
51083;BME280;37131;42.694;23.350;2022-08-07T09:36:39;95321.19;;;27.82;45.16
51083;BME280;37131;42.694;23.350;2022-08-07T09:39:30;95319.69;;;28.31;45.55
51083;BME280;37131;42.694;23.350;2022-08-07T09:49:58;95321.47;;;28.39;41.85
51083;BME280;37131;42.694;23.350;2022-08-07T09:52:36;95317.22;;;28.63;41.15
51083;BME280;37131;42.694;23.350;2022-08-07T09:55:16;95311.28;;;28.45;40.83
51083;BME280;37131;42.694;23.350;2022-08-07T10:15:22;95286.50;;;29.17;41.28
51083;BME280;37131;42.694;23.350;2022-08-07T10:26:31;95286.84;;;29.15;39.94
51083;BME280;37131;42.694;23.350;2022-08-07T10:37:53;95287.34;;;29.94;40.07
51083;BME280;37131;42.694;23.350;2022-08-07T10:45:51;95295.16;;;29.99;39.14
51083;BME280;37131;42.694;23.350;2022-08-07T10:51:16;95296.03;;;29.58;41.76
51083;BME280;37131;42.694;23.350;2022-08-07T10:53:48;95293.50;;;29.34;41.90
51083;BME280;37131;42.694;23.350;2022-08-07T11:02:01;95293.75;;;28.23;42.89
51083;BME280;37131;42.694;23.350;2022-08-07T11:07:09;95302.25;;;28.49;43.47
51083;BME280;37131;42.694;23.350;2022-08-07T11:09:43;95294.56;;;28.88;41.81
51083;BME280;37131;42.694;23.350;2022-08-07T11:12:10;95287.31;;;29.17;41.85
51083;BME280;37131;42.694;23.350;2022-08-07T11:14:53;95283.63;;;29.22;42.37
51083;BME280;37131;42.694;23.350;2022-08-07T11:17:34;95287.47;;;28.68;42.26
51083;BME280;37131;42.694;23.350;2022-08-07T11:20:20;95284.44;;;28.69;42.22
51083;BME280;37131;42.694;23.350;2022-08-07T11:23:10;95296.41;;;28.72;42.45
51083;BME280;37131;42.694;23.350;2022-08-07T11:26:09;95295.75;;;28.63;41.25
51083;BME280;37131;42.694;23.350;2022-08-07T11:28:38;95315.06;;;28.68;41.63
51083;BME280;37131;42.694;23.350;2022-08-07T11:31:12;95287.47;;;28.56;42.65
51083;BME280;37131;42.694;23.350;2022-08-07T11:33:52;95305.22;;;28.73;44.92
51083;BME280;37131;42.694;23.350;2022-08-07T11:39:12;95311.38;;;28.73;44.72
51083;BME280;37131;42.694;23.350;2022-08-07T11:41:50;95306.81;;;28.49;44.48
51083;BME280;37131;42.694;23.350;2022-08-07T11:50:10;95300.66;;;27.87;46.67
51083;BME280;37131;42.694;23.350;2022-08-07T11:55:25;95302.81;;;28.18;47.66
51083;BME280;37131;42.694;23.350;2022-08-07T11:58:17;95305.97;;;28.20;45.12
51083;BME280;37131;42.694;23.350;2022-08-07T12:00:57;95309.47;;;27.75;45.88
51083;BME280;37131;42.694;23.350;2022-08-07T12:03:33;95293.66;;;27.36;46.88
51083;BME280;37131;42.694;23.350;2022-08-07T12:08:47;95302.34;;;27.33;47.40
51083;BME280;37131;42.694;23.350;2022-08-07T12:16:24;95303.56;;;27.81;47.17
51083;BME280;37131;42.694;23.350;2022-08-07T12:21:43;95304.16;;;27.99;46.48
51083;BME280;37131;42.694;23.350;2022-08-07T12:24:24;95310.72;;;27.77;47.81
51083;BME280;37131;42.694;23.350;2022-08-07T12:27:13;95291.97;;;28.02;48.19
51083;BME280;37131;42.694;23.350;2022-08-07T12:29:47;95303.13;;;28.66;45.76
51083;BME280;37131;42.694;23.350;2022-08-07T12:32:20;95302.19;;;28.74;45.91
51083;BME280;37131;42.694;23.350;2022-08-07T12:34:48;95294.34;;;28.81;45.34
51083;BME280;37131;42.694;23.350;2022-08-07T12:37:15;95285.94;;;28.30;46.38
51083;BME280;37131;42.694;23.350;2022-08-07T12:39:44;95287.19;;;28.85;45.60
51083;BME280;37131;42.694;23.350;2022-08-07T12:42:11;95280.44;;;29.20;45.49
51083;BME280;37131;42.694;23.350;2022-08-07T12:44:44;95233.84;;;28.43;44.17
51083;BME280;37131;42.694;23.350;2022-08-07T12:47:37;95277.09;;;28.54;42.52
51083;BME280;37131;42.694;23.350;2022-08-07T12:53:01;95281.44;;;28.46;43.25
51083;BME280;37131;42.694;23.350;2022-08-07T12:55:42;95273.41;;;29.44;42.44
51083;BME280;37131;42.694;23.350;2022-08-07T12:58:13;95239.41;;;29.19;41.19
51083;BME280;37131;42.694;23.350;2022-08-07T13:01:23;95265.53;;;29.35;41.03
51083;BME280;37131;42.694;23.350;2022-08-07T13:07:08;95261.69;;;28.92;41.86
51083;BME280;37131;42.694;23.350;2022-08-07T13:12:25;95259.81;;;29.36;40.69
51083;BME280;37131;42.694;23.350;2022-08-07T13:20:58;95257.22;;;29.40;41.23
51083;BME280;37131;42.694;23.350;2022-08-07T13:26:29;95251.28;;;28.90;41.44
51083;BME280;37131;42.694;23.350;2022-08-07T13:34:27;95234.22;;;28.82;40.62
51083;BME280;37131;42.694;23.350;2022-08-07T13:37:03;95234.53;;;29.09;40.62
51083;BME280;37131;42.694;23.350;2022-08-07T13:39:45;95229.94;;;29.54;40.66
51083;BME280;37131;42.694;23.350;2022-08-07T13:42:13;95239.38;;;29.64;39.63
51083;BME280;37131;42.694;23.350;2022-08-07T13:44:41;95240.41;;;29.91;39.09
51083;BME280;37131;42.694;23.350;2022-08-07T13:47:09;95241.28;;;29.47;39.76
51083;BME280;37131;42.694;23.350;2022-08-07T13:49:43;95234.88;;;29.68;38.91
51083;BME280;37131;42.694;23.350;2022-08-07T13:52:10;95247.63;;;29.71;38.64
51083;BME280;37131;42.694;23.350;2022-08-07T13:54:38;95229.84;;;29.50;39.42
51083;BME280;37131;42.694;23.350;2022-08-07T13:57:09;95245.00;;;29.14;39.37
51083;BME280;37131;42.694;23.350;2022-08-07T13:59:43;95239.88;;;29.21;38.69
51083;BME280;37131;42.694;23.350;2022-08-07T14:02:20;95211.19;;;28.81;39.22
51083;BME280;37131;42.694;23.350;2022-08-07T14:04:47;95252.72;;;29.00;38.72
51083;BME280;37131;42.694;23.350;2022-08-07T14:07:14;95249.44;;;28.78;38.06
51083;BME280;37131;42.694;23.350;2022-08-07T14:09:41;95242.84;;;28.76;38.71
51083;BME280;37131;42.694;23.350;2022-08-07T14:12:25;95251.22;;;28.74;39.92
51083;BME280;37131;42.694;23.350;2022-08-07T14:14:58;95257.13;;;29.08;39.62
51083;BME280;37131;42.694;23.350;2022-08-07T14:17:25;95243.03;;;28.83;39.21
51083;BME280;37131;42.694;23.350;2022-08-07T14:19:56;95257.53;;;28.66;39.08
51083;BME280;37131;42.694;23.350;2022-08-07T14:22:26;95253.97;;;28.37;40.29
51083;BME280;37131;42.694;23.350;2022-08-07T14:24:58;95250.50;;;28.49;40.60
51083;BME280;37131;42.694;23.350;2022-08-07T14:27:35;95251.28;;;28.62;41.54
51083;BME280;37131;42.694;23.350;2022-08-07T14:30:08;95262.47;;;28.39;40.91
51083;BME280;37131;42.694;23.350;2022-08-07T14:32:44;95258.78;;;28.44;41.54
51083;BME280;37131;42.694;23.350;2022-08-07T14:35:23;95254.41;;;28.51;41.52
51083;BME280;37131;42.694;23.350;2022-08-07T14:37:50;95249.84;;;28.80;41.90
51083;BME280;37131;42.694;23.350;2022-08-07T14:40:22;95249.72;;;28.61;42.31
51083;BME280;37131;42.694;23.350;2022-08-07T14:43:05;95248.53;;;28.74;41.45
51083;BME280;37131;42.694;23.350;2022-08-07T14:45:56;95239.59;;;28.70;41.35
51083;BME280;37131;42.694;23.350;2022-08-07T14:48:30;95247.97;;;28.28;43.24
51083;BME280;37131;42.694;23.350;2022-08-07T14:51:18;95251.97;;;28.34;42.83
51083;BME280;37131;42.694;23.350;2022-08-07T14:53:42;95247.94;;;28.52;44.10
51083;BME280;37131;42.694;23.350;2022-08-07T14:56:14;95241.28;;;28.75;42.77
51083;BME280;37131;42.694;23.350;2022-08-07T14:58:47;95237.63;;;28.67;43.18
51083;BME280;37131;42.694;23.350;2022-08-07T15:01:14;95244.06;;;28.78;42.98
51083;BME280;37131;42.694;23.350;2022-08-07T15:03:42;95242.91;;;28.92;42.99
51083;BME280;37131;42.694;23.350;2022-08-07T15:06:10;95239.59;;;28.82;43.65
51083;BME280;37131;42.694;23.350;2022-08-07T15:08:38;95235.28;;;28.65;43.15
51083;BME280;37131;42.694;23.350;2022-08-07T15:11:09;95233.25;;;28.75;43.52
51083;BME280;37131;42.694;23.350;2022-08-07T15:13:52;95231.38;;;28.91;43.74
51083;BME280;37131;42.694;23.350;2022-08-07T15:16:23;95240.63;;;28.78;44.85
51083;BME280;37131;42.694;23.350;2022-08-07T15:18:54;95235.47;;;28.73;43.80
51083;BME280;37131;42.694;23.350;2022-08-07T15:21:26;95236.31;;;28.48;43.87
51083;BME280;37131;42.694;23.350;2022-08-07T15:24:00;95235.38;;;28.57;43.81